createdAt,value
2022-12-18T00:01:50.270Z,1.56
2022-12-18T00:02:50.278Z,1.59
2022-12-18T00:03:50.322Z,1.64
2022-12-18T00:04:50.199Z,1.65
2022-12-18T00:05:51.864Z,1.66
2022-12-18T00:06:50.236Z,1.68
2022-12-18T00:07:50.266Z,1.69
2022-12-18T00:09:50.346Z,1.66
2022-12-18T00:10:50.174Z,1.65
2022-12-18T00:12:50.187Z,1.68
2022-12-18T00:13:50.201Z,1.70
2022-12-18T00:14:50.256Z,1.68
2022-12-18T00:15:50.321Z,1.66
2022-12-18T00:16:50.254Z,1.65
2022-12-18T00:17:50.191Z,1.69
2022-12-18T00:19:50.281Z,1.72
2022-12-18T00:20:50.243Z,1.75
2022-12-18T00:21:50.220Z,1.79
2022-12-18T00:22:50.194Z,1.82
2022-12-18T00:23:50.241Z,1.86
2022-12-18T00:24:50.277Z,1.89
2022-12-18T00:25:50.213Z,1.90
2022-12-18T00:26:50.223Z,1.89
2022-12-18T00:27:50.252Z,1.91
2022-12-18T00:30:50.265Z,1.92
2022-12-18T00:31:50.342Z,1.91
2022-12-18T00:32:50.299Z,1.90
2022-12-18T00:33:54.076Z,1.88
2022-12-18T00:35:50.246Z,1.89
2022-12-18T00:36:50.283Z,1.88
2022-12-18T00:37:50.275Z,1.89
2022-12-18T00:38:50.250Z,1.88
2022-12-18T00:39:50.276Z,1.86
2022-12-18T00:41:50.260Z,1.84
2022-12-18T00:42:52.113Z,1.81
2022-12-18T00:44:50.255Z,1.84
2022-12-18T00:45:50.416Z,1.82
2022-12-18T00:46:50.294Z,1.84
2022-12-18T00:47:50.312Z,1.85
2022-12-18T00:48:50.285Z,1.84
2022-12-18T00:49:50.304Z,1.81
2022-12-18T00:50:50.301Z,1.79
2022-12-18T00:51:50.300Z,1.76
2022-12-18T00:52:50.338Z,1.72
2022-12-18T00:53:50.318Z,1.70
2022-12-18T00:54:50.314Z,1.71
2022-12-18T00:55:50.307Z,1.70
2022-12-18T00:56:50.327Z,1.72
2022-12-18T00:57:50.326Z,1.74
2022-12-18T00:58:50.287Z,1.76
2022-12-18T00:59:50.324Z,1.80
2022-12-18T01:00:50.476Z,1.83
2022-12-18T01:01:50.464Z,1.84
2022-12-18T01:02:50.520Z,1.86
2022-12-18T01:03:50.294Z,1.85
2022-12-18T01:04:50.298Z,1.86
2022-12-18T01:05:50.384Z,1.88
2022-12-18T01:06:50.296Z,1.87
2022-12-18T01:07:50.306Z,1.88
2022-12-18T01:08:50.342Z,1.89
2022-12-18T01:09:50.356Z,1.90
2022-12-18T01:10:50.405Z,1.91
2022-12-18T01:12:50.331Z,1.93
2022-12-18T01:13:50.407Z,1.94
2022-12-18T01:15:50.325Z,1.95
2022-12-18T01:16:50.402Z,1.96
2022-12-18T01:17:50.369Z,1.97
2022-12-18T01:18:50.388Z,1.96
2022-12-18T01:19:52.404Z,1.94
2022-12-18T01:20:50.377Z,1.95
2022-12-18T01:21:50.391Z,1.94
2022-12-18T01:25:50.439Z,1.96
2022-12-18T01:26:50.384Z,1.98
2022-12-18T01:28:50.427Z,1.97
2022-12-18T01:32:50.417Z,1.98
2022-12-18T01:33:50.406Z,2.00
2022-12-18T01:34:50.441Z,2.01
2022-12-18T01:35:50.406Z,2.02
2022-12-18T01:39:50.418Z,2.03
2022-12-18T01:40:50.464Z,2.00
2022-12-18T01:41:50.455Z,1.99
2022-12-18T01:43:50.445Z,2.01
2022-12-18T01:46:50.462Z,2.00
2022-12-18T01:47:50.382Z,1.98
2022-12-18T01:48:50.467Z,1.97
2022-12-18T01:50:50.467Z,1.95
2022-12-18T01:53:50.413Z,1.97
2022-12-18T01:54:50.488Z,1.96
2022-12-18T01:55:50.461Z,1.97
2022-12-18T01:56:52.630Z,1.96
2022-12-18T01:58:50.434Z,1.98
2022-12-18T01:59:50.475Z,1.99
2022-12-18T02:02:50.578Z,1.96
2022-12-18T02:04:50.511Z,1.97
2022-12-18T02:06:50.484Z,1.96
2022-12-18T02:09:50.543Z,1.97
2022-12-18T02:11:50.474Z,1.98
2022-12-18T02:12:50.476Z,1.99
2022-12-18T02:14:50.500Z,2.00
2022-12-18T02:16:50.564Z,1.99
2022-12-18T02:19:50.551Z,1.97
2022-12-18T02:21:50.544Z,1.95
2022-12-18T02:22:50.557Z,1.94
2022-12-18T02:23:50.488Z,1.93
2022-12-18T02:24:50.494Z,1.94
2022-12-18T02:25:50.508Z,1.93
2022-12-18T02:26:50.492Z,1.91
2022-12-18T02:27:50.502Z,1.88
2022-12-18T02:28:50.528Z,1.86
2022-12-18T02:29:55.980Z,1.85
2022-12-18T02:30:50.654Z,1.81
2022-12-18T02:32:50.569Z,1.83
2022-12-18T02:33:52.870Z,1.77
2022-12-18T02:34:50.552Z,1.71
2022-12-18T02:35:50.532Z,1.64
2022-12-18T02:36:50.547Z,1.60
2022-12-18T02:37:50.560Z,1.59
2022-12-18T02:38:50.535Z,1.60
2022-12-18T02:40:50.598Z,1.62
2022-12-18T02:41:50.534Z,1.66
2022-12-18T02:42:50.565Z,1.68
2022-12-18T02:43:50.574Z,1.71
2022-12-18T02:45:50.708Z,1.70
2022-12-18T02:46:50.600Z,1.68
2022-12-18T02:47:50.594Z,1.67
2022-12-18T02:49:50.564Z,1.66
2022-12-18T02:50:50.600Z,1.68
2022-12-18T02:51:50.585Z,1.69
2022-12-18T02:52:50.625Z,1.70
2022-12-18T02:53:50.613Z,1.72
2022-12-18T02:54:51.444Z,1.74
2022-12-18T02:57:50.570Z,1.72
2022-12-18T02:58:50.627Z,1.73
2022-12-18T03:00:50.705Z,1.74
2022-12-18T03:01:50.729Z,1.75
2022-12-18T03:02:50.724Z,1.76
2022-12-18T03:03:50.607Z,1.77
2022-12-18T03:04:50.610Z,1.76
2022-12-18T03:05:50.618Z,1.77
2022-12-18T03:07:50.625Z,1.79
2022-12-18T03:08:50.680Z,1.81
2022-12-18T03:09:50.630Z,1.84
2022-12-18T03:10:53.075Z,1.83
2022-12-18T03:11:50.608Z,1.84
2022-12-18T03:13:50.668Z,1.81
2022-12-18T03:14:50.616Z,1.82
2022-12-18T03:15:50.601Z,1.81
2022-12-18T03:16:50.635Z,1.83
2022-12-18T03:17:50.606Z,1.82
2022-12-18T03:18:50.689Z,1.81
2022-12-18T03:19:50.660Z,1.82
2022-12-18T03:20:50.627Z,1.84
2022-12-18T03:25:50.650Z,1.85
2022-12-18T03:27:50.674Z,1.86
2022-12-18T03:28:50.691Z,1.85
2022-12-18T03:29:50.647Z,1.86
2022-12-18T03:31:50.680Z,1.87
2022-12-18T03:34:50.649Z,1.86
2022-12-18T03:37:50.715Z,1.87
2022-12-18T03:38:50.730Z,1.88
2022-12-18T03:39:50.673Z,1.87
2022-12-18T03:40:50.717Z,1.88
2022-12-18T03:43:50.760Z,1.89
2022-12-18T03:45:50.712Z,1.88
2022-12-18T03:46:50.747Z,1.89
2022-12-18T03:48:50.719Z,1.88
2022-12-18T03:49:50.699Z,1.89
2022-12-18T03:52:50.734Z,1.90
2022-12-18T03:53:50.780Z,1.92
2022-12-18T03:54:50.733Z,1.93
2022-12-18T03:55:50.756Z,1.91
2022-12-18T03:56:50.782Z,1.89
2022-12-18T03:57:50.757Z,1.85
2022-12-18T03:58:50.796Z,1.82
2022-12-18T03:59:50.711Z,1.80
2022-12-18T04:01:50.913Z,1.79
2022-12-18T04:02:50.764Z,1.80
2022-12-18T04:03:50.823Z,1.81
2022-12-18T04:05:50.749Z,1.83
2022-12-18T04:06:50.757Z,1.85
2022-12-18T04:07:50.727Z,1.86
2022-12-18T04:08:50.746Z,1.87
2022-12-18T04:09:50.772Z,1.90
2022-12-18T04:11:50.823Z,1.88
2022-12-18T04:12:50.748Z,1.86
2022-12-18T04:13:50.733Z,1.85
2022-12-18T04:14:50.796Z,1.82
2022-12-18T04:15:50.866Z,1.81
2022-12-18T04:17:50.760Z,1.78
2022-12-18T04:18:50.760Z,1.75
2022-12-18T04:19:50.793Z,1.72
2022-12-18T04:20:50.792Z,1.69
2022-12-18T04:21:50.783Z,1.67
2022-12-18T04:22:50.800Z,1.66
2022-12-18T04:23:50.811Z,1.67
2022-12-18T04:24:53.581Z,1.68
2022-12-18T04:26:50.822Z,1.66
2022-12-18T04:27:50.786Z,1.64
2022-12-18T04:28:50.824Z,1.62
2022-12-18T04:29:50.857Z,1.59
2022-12-18T04:30:50.911Z,1.57
2022-12-18T04:31:50.874Z,1.59
2022-12-18T04:32:52.367Z,1.61
2022-12-18T04:33:50.814Z,1.62
2022-12-18T04:34:50.866Z,1.65
2022-12-18T04:35:50.806Z,1.61
2022-12-18T04:36:50.827Z,1.62
2022-12-18T04:37:50.796Z,1.65
2022-12-18T04:38:50.838Z,1.69
2022-12-18T04:39:50.844Z,1.71
2022-12-18T04:40:50.859Z,1.73
2022-12-18T04:41:50.882Z,1.74
2022-12-18T04:42:50.824Z,1.75
2022-12-18T04:43:50.861Z,1.77
2022-12-18T04:44:50.855Z,1.76
2022-12-18T04:45:50.873Z,1.78
2022-12-18T04:48:50.843Z,1.77
2022-12-18T04:49:50.895Z,1.80
2022-12-18T04:50:50.847Z,1.79
2022-12-18T04:51:50.917Z,1.78
2022-12-18T04:54:50.937Z,1.76
2022-12-18T04:55:50.868Z,1.77
2022-12-18T04:56:50.916Z,1.79
2022-12-18T04:57:50.877Z,1.80
2022-12-18T04:59:50.957Z,1.77
2022-12-18T05:00:50.856Z,1.75
2022-12-18T05:01:53.923Z,1.74
2022-12-18T05:02:51.073Z,1.71
2022-12-18T05:03:50.949Z,1.64
2022-12-18T05:04:50.932Z,1.47
2022-12-18T05:05:50.876Z,1.29
2022-12-18T05:06:50.944Z,1.15
2022-12-18T05:07:50.923Z,1.12
2022-12-18T05:08:50.918Z,0.98
2022-12-18T05:09:50.948Z,0.93
2022-12-18T05:10:50.879Z,0.89
2022-12-18T05:12:50.877Z,0.98
2022-12-18T05:13:50.909Z,1.03
2022-12-18T05:14:50.978Z,0.93
2022-12-18T05:15:51.084Z,0.91
2022-12-18T05:16:50.923Z,0.84
2022-12-18T05:17:50.955Z,0.77
2022-12-18T05:18:50.939Z,0.73
2022-12-18T05:19:50.970Z,0.72
2022-12-18T05:20:50.942Z,0.71
2022-12-18T05:21:50.901Z,0.66
2022-12-18T05:22:50.974Z,0.70
2022-12-18T05:23:50.902Z,0.73
2022-12-18T05:24:50.955Z,0.80
2022-12-18T05:25:50.935Z,0.84
2022-12-18T05:27:50.991Z,0.85
2022-12-18T05:28:50.943Z,0.87
2022-12-18T05:29:50.963Z,0.92
2022-12-18T05:30:50.987Z,0.93
2022-12-18T05:31:50.968Z,0.95
2022-12-18T05:34:50.934Z,0.97
2022-12-18T05:36:50.952Z,0.99
2022-12-18T05:37:50.986Z,1.02
2022-12-18T05:38:54.104Z,1.01
2022-12-18T05:39:50.939Z,1.00
2022-12-18T05:40:51.030Z,1.02
2022-12-18T05:41:50.992Z,0.98
2022-12-18T05:42:50.995Z,0.94
2022-12-18T05:43:51.013Z,0.93
2022-12-18T05:44:50.984Z,0.92
2022-12-18T05:45:51.009Z,0.93
2022-12-18T05:46:51.031Z,0.88
2022-12-18T05:47:51.032Z,0.86
2022-12-18T05:48:51.004Z,0.85
2022-12-18T05:49:50.983Z,0.86
2022-12-18T05:50:51.046Z,0.90
2022-12-18T05:51:50.975Z,0.94
2022-12-18T05:52:51.016Z,0.96
2022-12-18T05:53:51.021Z,0.90
2022-12-18T05:54:51.021Z,0.92
2022-12-18T05:55:51.021Z,0.95
2022-12-18T05:56:51.031Z,0.97
2022-12-18T05:58:51.031Z,1.01
2022-12-18T05:59:51.029Z,1.06
2022-12-18T06:00:51.077Z,1.11
2022-12-18T06:01:51.154Z,1.13
2022-12-18T06:02:51.205Z,1.12
2022-12-18T06:03:51.078Z,1.10
2022-12-18T06:04:51.040Z,1.12
2022-12-18T06:05:51.089Z,1.11
2022-12-18T06:06:51.027Z,1.13
2022-12-18T06:07:51.106Z,1.12
2022-12-18T06:08:51.057Z,1.07
2022-12-18T06:09:51.041Z,0.98
2022-12-18T06:10:51.091Z,0.92
2022-12-18T06:11:51.015Z,0.91
2022-12-18T06:12:51.012Z,0.93
2022-12-18T06:13:56.158Z,0.96
2022-12-18T06:14:51.071Z,1.00
2022-12-18T06:15:54.433Z,1.06
2022-12-18T06:16:51.068Z,1.07
2022-12-18T06:17:51.033Z,1.10
2022-12-18T06:18:51.063Z,1.18
2022-12-18T06:19:51.038Z,1.23
2022-12-18T06:20:51.065Z,1.29
2022-12-18T06:21:51.022Z,1.30
2022-12-18T06:22:51.110Z,1.26
2022-12-18T06:23:51.084Z,1.27
2022-12-18T06:24:51.138Z,1.21
2022-12-18T06:25:51.118Z,1.22
2022-12-18T06:26:51.097Z,1.26
2022-12-18T06:27:51.057Z,1.28
2022-12-18T06:28:51.092Z,1.22
2022-12-18T06:29:51.105Z,1.17
2022-12-18T06:30:51.129Z,1.18
2022-12-18T06:31:51.259Z,1.12
2022-12-18T06:32:56.373Z,1.10
2022-12-18T06:33:51.098Z,1.08
2022-12-18T06:34:51.071Z,1.07
2022-12-18T06:35:51.108Z,1.08
2022-12-18T06:36:51.066Z,1.07
2022-12-18T06:37:51.147Z,1.09
2022-12-18T06:38:51.120Z,0.93
2022-12-18T06:39:51.134Z,0.76
2022-12-18T06:40:51.120Z,0.71
2022-12-18T06:41:51.081Z,0.74
2022-12-18T06:42:51.154Z,0.82
2022-12-18T06:43:52.244Z,0.93
2022-12-18T06:44:51.101Z,1.03
2022-12-18T06:45:51.170Z,1.10
2022-12-18T06:46:51.107Z,1.15
2022-12-18T06:47:51.137Z,1.23
2022-12-18T06:48:51.147Z,1.28
2022-12-18T06:49:51.137Z,1.32
2022-12-18T06:50:51.142Z,1.34
2022-12-18T06:51:51.110Z,1.35
2022-12-18T06:52:54.635Z,1.34
2022-12-18T06:53:51.162Z,1.36
2022-12-18T06:54:51.131Z,1.37
2022-12-18T06:55:51.150Z,1.36
2022-12-18T06:57:51.127Z,1.23
2022-12-18T06:58:51.164Z,1.21
2022-12-18T06:59:51.136Z,1.20
2022-12-18T07:00:51.273Z,1.22
2022-12-18T07:01:51.327Z,1.26
2022-12-18T07:02:51.416Z,1.29
2022-12-18T07:03:51.212Z,1.33
2022-12-18T07:04:51.194Z,1.34
2022-12-18T07:05:51.193Z,1.32
2022-12-18T07:07:51.185Z,1.31
2022-12-18T07:08:51.232Z,1.29
2022-12-18T07:10:55.903Z,1.28
2022-12-18T07:11:51.212Z,1.29
2022-12-18T07:12:51.195Z,1.33
2022-12-18T07:13:51.205Z,1.34
2022-12-18T07:14:51.209Z,1.35
2022-12-18T07:15:51.263Z,1.38
2022-12-18T07:16:51.310Z,1.32
2022-12-18T07:17:51.172Z,1.25
2022-12-18T07:18:51.240Z,1.22
2022-12-18T07:19:51.180Z,1.04
2022-12-18T07:20:51.213Z,0.96
2022-12-18T07:21:51.223Z,0.89
2022-12-18T07:22:56.143Z,0.82
2022-12-18T07:23:51.275Z,0.64
2022-12-18T07:24:51.224Z,0.63
2022-12-18T07:25:51.235Z,0.68
2022-12-18T07:26:51.255Z,0.75
2022-12-18T07:27:51.209Z,0.85
2022-12-18T07:28:51.243Z,0.92
2022-12-18T07:29:54.867Z,0.99
2022-12-18T07:30:51.224Z,1.05
2022-12-18T07:31:51.342Z,1.09
2022-12-18T07:32:51.212Z,1.13
2022-12-18T07:33:51.261Z,1.18
2022-12-18T07:34:51.247Z,1.20
2022-12-18T07:35:51.217Z,1.21
2022-12-18T07:36:51.289Z,1.23
2022-12-18T07:37:51.254Z,1.28
2022-12-18T07:38:51.276Z,1.27
2022-12-18T07:39:51.310Z,1.29
2022-12-18T07:40:51.283Z,1.22
2022-12-18T07:41:51.291Z,1.24
2022-12-18T07:42:51.236Z,1.20
2022-12-18T07:43:51.249Z,1.14
2022-12-18T07:44:51.315Z,1.15
2022-12-18T07:46:51.337Z,1.20
2022-12-18T07:47:51.252Z,1.23
2022-12-18T07:48:51.299Z,1.15
2022-12-18T07:50:51.300Z,1.19
2022-12-18T07:51:51.311Z,1.22
2022-12-18T07:52:51.303Z,1.26
2022-12-18T07:53:52.277Z,1.30
2022-12-18T07:54:51.290Z,1.20
2022-12-18T07:56:18.354Z,1.10
2022-12-18T07:57:54.145Z,1.15
2022-12-18T07:58:51.317Z,1.21
2022-12-18T07:59:51.309Z,1.29
2022-12-18T08:00:51.300Z,1.36
2022-12-18T08:01:51.422Z,1.44
2022-12-18T08:02:51.411Z,1.51
2022-12-18T08:03:52.108Z,1.56
2022-12-18T08:05:51.341Z,1.49
2022-12-18T08:06:55.166Z,1.48
2022-12-18T08:07:51.342Z,1.47
2022-12-18T08:08:51.331Z,1.41
2022-12-18T08:09:51.423Z,1.38
2022-12-18T08:10:51.298Z,1.34
2022-12-18T08:11:51.348Z,1.38
2022-12-18T08:12:51.404Z,1.44
2022-12-18T08:13:51.348Z,1.51
2022-12-18T08:14:51.348Z,1.60
2022-12-18T08:15:51.356Z,1.67
2022-12-18T08:16:51.377Z,1.77
2022-12-18T08:17:51.355Z,1.85
2022-12-18T08:18:51.311Z,1.90
2022-12-18T08:19:51.380Z,1.95
2022-12-18T08:20:51.382Z,2.01
2022-12-18T08:21:51.373Z,2.07
2022-12-18T08:22:51.383Z,2.10
2022-12-18T08:23:51.801Z,2.14
2022-12-18T08:24:51.410Z,2.15
2022-12-18T08:25:51.369Z,2.17
2022-12-18T08:28:51.349Z,2.13
2022-12-18T08:29:51.438Z,2.08
2022-12-18T08:31:51.428Z,2.06
2022-12-18T08:32:51.429Z,2.08
2022-12-18T08:33:51.419Z,2.09
2022-12-18T08:34:51.399Z,2.07
2022-12-18T08:36:51.372Z,2.08
2022-12-18T08:37:51.397Z,2.09
2022-12-18T08:38:51.423Z,2.10
2022-12-18T08:39:51.393Z,2.11
2022-12-18T08:40:51.378Z,2.10
2022-12-18T08:41:51.386Z,2.08
2022-12-18T08:42:51.409Z,2.11
2022-12-18T08:43:55.386Z,2.14
2022-12-18T08:44:51.374Z,2.17
2022-12-18T08:45:51.457Z,2.21
2022-12-18T08:46:51.422Z,2.22
2022-12-18T08:47:51.468Z,2.25
2022-12-18T08:48:51.454Z,2.28
2022-12-18T08:49:51.439Z,2.31
2022-12-18T08:50:51.418Z,2.35
2022-12-18T08:51:51.387Z,2.37
2022-12-18T08:52:51.464Z,2.36
2022-12-18T08:53:51.435Z,2.33
2022-12-18T08:54:51.442Z,2.34
2022-12-18T08:55:51.493Z,2.37
2022-12-18T08:56:51.435Z,2.41
2022-12-18T08:57:51.432Z,2.42
2022-12-18T08:58:51.449Z,2.44
2022-12-18T08:59:51.408Z,2.42
2022-12-18T09:00:51.681Z,2.38
2022-12-18T09:01:51.531Z,2.36
2022-12-18T09:02:51.739Z,2.38
2022-12-18T09:03:51.497Z,2.39
2022-12-18T09:04:57.122Z,2.40
2022-12-18T09:05:51.482Z,2.41
2022-12-18T09:07:51.468Z,2.44
2022-12-18T09:08:51.510Z,2.48
2022-12-18T09:09:51.459Z,2.52
2022-12-18T09:10:51.503Z,2.54
2022-12-18T09:11:51.525Z,2.56
2022-12-18T09:12:51.481Z,2.59
2022-12-18T09:13:51.457Z,2.61
2022-12-18T09:14:51.474Z,2.47
2022-12-18T09:15:51.480Z,2.28
2022-12-18T09:16:51.509Z,2.21
2022-12-18T09:17:51.517Z,2.19
2022-12-18T09:18:51.526Z,2.17
2022-12-18T09:19:51.475Z,2.03
2022-12-18T09:21:51.521Z,1.93
2022-12-18T09:22:51.489Z,1.97
2022-12-18T09:23:51.503Z,2.05
2022-12-18T09:24:51.533Z,2.14
2022-12-18T09:25:51.577Z,2.25
2022-12-18T09:26:56.138Z,2.30
2022-12-18T09:27:51.497Z,2.36
2022-12-18T09:28:51.552Z,2.37
2022-12-18T09:29:51.536Z,2.38
2022-12-18T09:30:51.613Z,2.29
2022-12-18T09:31:51.499Z,2.27
2022-12-18T09:32:51.493Z,2.32
2022-12-18T09:33:51.549Z,2.38
2022-12-18T09:34:51.509Z,2.43
2022-12-18T09:35:51.538Z,2.50
2022-12-18T09:36:51.557Z,2.58
2022-12-18T09:37:51.555Z,2.65
2022-12-18T09:38:51.552Z,2.72
2022-12-18T09:39:51.578Z,2.77
2022-12-18T09:40:51.544Z,2.84
2022-12-18T09:41:52.185Z,2.91
2022-12-18T09:42:51.551Z,2.97
2022-12-18T09:43:51.611Z,3.02
2022-12-18T09:44:51.631Z,3.05
2022-12-18T09:45:51.575Z,3.08
2022-12-18T09:46:51.625Z,3.12
2022-12-18T09:47:51.575Z,3.15
2022-12-18T09:48:51.601Z,3.20
2022-12-18T09:49:51.589Z,3.21
2022-12-18T09:50:51.573Z,3.24
2022-12-18T09:51:51.622Z,3.27
2022-12-18T09:52:51.574Z,3.29
2022-12-18T09:53:51.636Z,3.34
2022-12-18T09:55:51.625Z,3.35
2022-12-18T09:56:51.633Z,3.37
2022-12-18T09:57:55.878Z,3.38
2022-12-18T09:59:51.597Z,3.37
2022-12-18T10:01:51.864Z,3.36
2022-12-18T10:02:51.779Z,3.35
2022-12-18T10:03:51.574Z,3.38
2022-12-18T10:04:51.633Z,3.39
2022-12-18T10:05:51.602Z,3.41
2022-12-18T10:07:51.622Z,3.42
2022-12-18T10:09:51.660Z,3.43
2022-12-18T10:10:51.629Z,3.44
2022-12-18T10:12:51.618Z,3.46
2022-12-18T10:13:51.614Z,3.50
2022-12-18T10:14:51.671Z,3.53
2022-12-18T10:15:51.740Z,3.55
2022-12-18T10:16:51.675Z,3.60
2022-12-18T10:17:51.673Z,3.63
2022-12-18T10:18:51.685Z,3.67
2022-12-18T10:19:51.663Z,3.69
2022-12-18T10:20:51.665Z,3.71
2022-12-18T10:21:51.642Z,3.74
2022-12-18T10:23:51.665Z,3.75
2022-12-18T10:24:51.717Z,3.74
2022-12-18T10:25:51.692Z,3.76
2022-12-18T10:27:51.636Z,3.79
2022-12-18T10:28:51.667Z,3.83
2022-12-18T10:29:51.699Z,3.84
2022-12-18T10:30:51.710Z,3.85
2022-12-18T10:33:51.700Z,3.87
2022-12-18T10:35:00.425Z,3.89
2022-12-18T10:35:51.693Z,3.91
2022-12-18T10:37:51.713Z,3.92
2022-12-18T10:38:51.642Z,3.93
2022-12-18T10:39:51.740Z,3.92
2022-12-18T10:41:51.668Z,3.89
2022-12-18T10:42:51.687Z,3.86
2022-12-18T10:43:51.699Z,3.84
2022-12-18T10:44:51.725Z,3.81
2022-12-18T10:45:51.679Z,3.76
2022-12-18T10:46:51.816Z,3.73
2022-12-18T10:47:51.745Z,3.60
2022-12-18T10:48:51.692Z,3.48
2022-12-18T10:49:51.715Z,3.40
2022-12-18T10:51:10.347Z,3.39
2022-12-18T10:51:51.672Z,3.40
2022-12-18T10:52:51.711Z,3.41
2022-12-18T10:54:51.723Z,3.44
2022-12-18T10:55:51.693Z,3.43
2022-12-18T10:56:51.696Z,3.45
2022-12-18T10:57:51.767Z,3.43
2022-12-18T10:58:51.735Z,3.29
2022-12-18T10:59:51.726Z,3.09
2022-12-18T11:00:51.736Z,3.04
2022-12-18T11:01:51.874Z,2.97
2022-12-18T11:02:52.059Z,2.98
2022-12-18T11:03:51.846Z,3.02
2022-12-18T11:04:51.774Z,2.97
2022-12-18T11:05:51.742Z,3.02
2022-12-18T11:06:51.757Z,3.05
2022-12-18T11:07:51.785Z,2.93
2022-12-18T11:08:52.038Z,2.94
2022-12-18T11:09:51.803Z,3.02
2022-12-18T11:10:51.765Z,3.13
2022-12-18T11:11:51.780Z,3.24
2022-12-18T11:12:51.755Z,3.34
2022-12-18T11:13:51.725Z,3.41
2022-12-18T11:15:51.848Z,3.34
2022-12-18T11:17:24.179Z,3.37
2022-12-18T11:17:51.768Z,3.40
2022-12-18T11:18:51.794Z,3.43
2022-12-18T11:19:51.814Z,3.46
2022-12-18T11:20:56.908Z,3.48
2022-12-18T11:21:51.748Z,3.50
2022-12-18T11:22:51.822Z,3.47
2022-12-18T11:23:51.802Z,3.36
2022-12-18T11:25:14.954Z,3.31
2022-12-18T11:26:57.798Z,3.30
2022-12-18T11:27:51.807Z,3.06
2022-12-18T11:28:51.792Z,2.79
2022-12-18T11:29:52.021Z,2.60
2022-12-18T11:30:51.867Z,2.65
2022-12-18T11:31:51.770Z,2.76
2022-12-18T11:32:51.770Z,2.83
2022-12-18T11:34:19.662Z,2.85
2022-12-18T11:34:57.358Z,2.79
2022-12-18T11:35:51.871Z,2.62
2022-12-18T11:36:51.830Z,2.56
2022-12-18T11:37:51.839Z,2.52
2022-12-18T11:38:51.863Z,2.36
2022-12-18T11:39:51.832Z,2.34
2022-12-18T11:40:51.861Z,2.40
2022-12-18T11:41:51.856Z,2.52
2022-12-18T11:42:51.840Z,2.37
2022-12-18T11:43:51.872Z,2.17
2022-12-18T11:44:51.849Z,2.08
2022-12-18T11:45:52.345Z,2.17
2022-12-18T11:46:51.957Z,2.32
2022-12-18T11:47:51.853Z,2.46
2022-12-18T11:48:51.908Z,2.62
2022-12-18T11:49:51.866Z,2.75
2022-12-18T11:50:51.851Z,2.83
2022-12-18T11:51:51.853Z,2.87
2022-12-18T11:52:57.309Z,2.91
2022-12-18T11:53:51.861Z,2.92
2022-12-18T11:54:51.897Z,2.93
2022-12-18T11:55:51.816Z,2.92
2022-12-18T11:56:51.842Z,2.97
2022-12-18T11:57:51.831Z,3.02
2022-12-18T11:58:51.924Z,3.04
2022-12-18T11:59:51.878Z,2.99
2022-12-18T12:00:51.880Z,3.00
2022-12-18T12:02:51.977Z,3.03
2022-12-18T12:03:52.007Z,3.05
2022-12-18T12:04:51.906Z,3.07
2022-12-18T12:06:51.902Z,3.09
2022-12-18T12:07:51.873Z,3.14
2022-12-18T12:08:51.900Z,3.15
2022-12-18T12:09:51.862Z,3.19
2022-12-18T12:10:51.898Z,3.23
2022-12-18T12:11:51.959Z,3.26
2022-12-18T12:12:51.878Z,3.33
2022-12-18T12:13:51.904Z,3.38
2022-12-18T12:14:51.879Z,3.45
2022-12-18T12:15:51.940Z,3.49
2022-12-18T12:16:51.923Z,3.24
2022-12-18T12:17:51.890Z,3.13
2022-12-18T12:18:51.927Z,3.07
2022-12-18T12:19:51.924Z,3.08
2022-12-18T12:21:51.943Z,3.04
2022-12-18T12:22:52.533Z,2.88
2022-12-18T12:24:51.936Z,2.93
2022-12-18T12:25:51.936Z,3.00
2022-12-18T12:26:51.943Z,3.06
2022-12-18T12:27:51.966Z,3.09
2022-12-18T12:28:51.969Z,3.12
2022-12-18T12:30:51.918Z,3.11
2022-12-18T12:31:52.036Z,3.04
2022-12-18T12:32:51.943Z,2.99
2022-12-18T12:34:57.667Z,3.01
2022-12-18T12:35:51.935Z,3.03
2022-12-18T12:36:52.032Z,2.99
2022-12-18T12:37:51.962Z,2.90
2022-12-18T12:39:52.007Z,2.94
2022-12-18T12:40:57.083Z,2.91
2022-12-18T12:41:51.978Z,2.86
2022-12-18T12:42:52.025Z,2.90
2022-12-18T12:43:52.189Z,2.95
2022-12-18T12:44:56.424Z,3.02
2022-12-18T12:45:52.063Z,3.08
2022-12-18T12:46:51.993Z,3.17
2022-12-18T12:47:52.049Z,3.23
2022-12-18T12:48:51.956Z,3.31
2022-12-18T12:49:52.036Z,3.37
2022-12-18T12:50:51.945Z,3.44
2022-12-18T12:51:52.012Z,3.46
2022-12-18T12:52:52.008Z,3.43
2022-12-18T12:53:51.977Z,3.44
2022-12-18T12:54:52.013Z,3.48
2022-12-18T12:55:52.010Z,3.47
2022-12-18T12:56:51.991Z,3.46
2022-12-18T12:57:52.006Z,3.48
2022-12-18T12:58:52.023Z,3.50
2022-12-18T13:00:52.159Z,3.45
2022-12-18T13:01:52.132Z,3.36
2022-12-18T13:02:52.059Z,3.34
2022-12-18T13:03:52.026Z,3.37
2022-12-18T13:04:52.029Z,3.41
2022-12-18T13:05:52.032Z,3.43
2022-12-18T13:06:52.042Z,3.46
2022-12-18T13:07:52.074Z,3.50
2022-12-18T13:08:52.048Z,3.55
2022-12-18T13:09:52.047Z,3.58
2022-12-18T13:10:52.079Z,3.61
2022-12-18T13:11:57.811Z,3.59
2022-12-18T13:12:52.063Z,3.61
2022-12-18T13:13:52.062Z,3.65
2022-12-18T13:14:52.081Z,3.69
2022-12-18T13:15:52.098Z,3.68
2022-12-18T13:16:52.020Z,3.72
2022-12-18T13:17:52.107Z,3.74
2022-12-18T13:18:52.027Z,3.78
2022-12-18T13:19:52.034Z,3.80
2022-12-18T13:20:54.399Z,3.83
2022-12-18T13:21:52.091Z,3.84
2022-12-18T13:22:52.076Z,3.83
2022-12-18T13:23:52.074Z,3.85
2022-12-18T13:24:52.061Z,3.82
2022-12-18T13:25:52.118Z,3.80
2022-12-18T13:26:52.044Z,3.79
2022-12-18T13:27:52.131Z,3.74
2022-12-18T13:28:52.055Z,3.69
2022-12-18T13:29:52.056Z,3.66
2022-12-18T13:30:55.626Z,3.63
2022-12-18T13:31:52.096Z,3.47
2022-12-18T13:32:52.147Z,3.28
2022-12-18T13:34:52.060Z,3.06
2022-12-18T13:35:52.163Z,3.09
2022-12-18T13:36:53.142Z,3.15
2022-12-18T13:37:52.110Z,3.18
2022-12-18T13:38:52.139Z,3.19
2022-12-18T13:39:52.085Z,3.21
2022-12-18T13:41:52.122Z,3.18
2022-12-18T13:42:52.091Z,3.13
2022-12-18T13:43:52.151Z,3.09
2022-12-18T13:44:52.130Z,3.06
2022-12-18T13:45:52.155Z,2.97
2022-12-18T13:46:52.111Z,2.85
2022-12-18T13:47:52.105Z,2.78
2022-12-18T13:48:52.185Z,2.81
2022-12-18T13:50:52.146Z,2.72
2022-12-18T13:51:52.139Z,2.71
2022-12-18T13:52:52.133Z,2.66
2022-12-18T13:53:52.175Z,2.62
2022-12-18T13:54:52.159Z,2.61
2022-12-18T13:55:52.151Z,2.69
2022-12-18T13:56:52.144Z,2.79
2022-12-18T13:57:52.149Z,2.92
2022-12-18T13:58:52.201Z,3.01
2022-12-18T13:59:52.159Z,3.10
2022-12-18T14:00:52.322Z,3.20
2022-12-18T14:01:52.367Z,3.30
2022-12-18T14:02:52.302Z,3.41
2022-12-18T14:04:52.176Z,3.39
2022-12-18T14:05:52.203Z,3.38
2022-12-18T14:07:52.142Z,3.43
2022-12-18T14:08:52.202Z,3.46
2022-12-18T14:09:55.485Z,3.51
2022-12-18T14:10:52.253Z,3.56
2022-12-18T14:11:52.200Z,3.63
2022-12-18T14:12:52.204Z,3.66
2022-12-18T14:14:54.934Z,3.62
2022-12-18T14:15:52.232Z,3.59
2022-12-18T14:16:52.265Z,3.51
2022-12-18T14:17:52.187Z,3.50
2022-12-18T14:18:52.241Z,3.49
2022-12-18T14:19:52.191Z,3.50
2022-12-18T14:20:52.840Z,3.47
2022-12-18T14:21:52.213Z,3.44
2022-12-18T14:22:52.174Z,3.40
2022-12-18T14:23:52.202Z,3.35
2022-12-18T14:24:52.199Z,3.33
2022-12-18T14:25:52.217Z,3.30
2022-12-18T14:26:52.202Z,3.26
2022-12-18T14:27:52.218Z,3.24
2022-12-18T14:28:52.264Z,3.23
2022-12-18T14:29:52.235Z,3.25
2022-12-18T14:30:52.295Z,3.27
2022-12-18T14:31:52.275Z,3.21
2022-12-18T14:32:52.230Z,3.18
2022-12-18T14:33:52.284Z,3.17
2022-12-18T14:34:52.193Z,3.18
2022-12-18T14:35:52.242Z,3.17
2022-12-18T14:36:52.290Z,3.20
2022-12-18T14:37:52.242Z,3.27
2022-12-18T14:38:52.294Z,3.33
2022-12-18T14:39:52.261Z,3.36
2022-12-18T14:40:52.320Z,3.33
2022-12-18T14:41:52.247Z,3.31
2022-12-18T14:42:52.277Z,3.26
2022-12-18T14:43:52.295Z,3.06
2022-12-18T14:45:13.358Z,2.85
2022-12-18T14:45:52.246Z,2.67
2022-12-18T14:46:52.305Z,2.52
2022-12-18T14:47:52.265Z,2.47
2022-12-18T14:48:52.300Z,2.56
2022-12-18T14:49:52.280Z,2.50
2022-12-18T14:50:53.615Z,2.52
2022-12-18T14:52:52.276Z,2.44
2022-12-18T14:53:54.499Z,2.30
2022-12-18T14:54:52.294Z,2.28
2022-12-18T14:55:52.302Z,2.30
2022-12-18T14:56:52.332Z,2.35
2022-12-18T14:57:52.293Z,2.40
2022-12-18T14:59:52.300Z,2.43
2022-12-18T15:00:52.267Z,2.46
2022-12-18T15:01:52.456Z,2.50
2022-12-18T15:02:52.398Z,2.51
2022-12-18T15:03:52.395Z,2.38
2022-12-18T15:04:52.353Z,2.37
2022-12-18T15:05:52.277Z,2.40
2022-12-18T15:06:52.290Z,2.41
2022-12-18T15:07:52.303Z,2.40
2022-12-18T15:08:52.323Z,2.33
2022-12-18T15:09:52.356Z,2.31
2022-12-18T15:10:52.321Z,2.28
2022-12-18T15:11:52.346Z,2.30
2022-12-18T15:12:52.343Z,2.32
2022-12-18T15:13:52.288Z,2.28
2022-12-18T15:14:52.343Z,2.26
2022-12-18T15:15:52.333Z,2.28
2022-12-18T15:16:52.341Z,2.34
2022-12-18T15:17:52.414Z,2.41
2022-12-18T15:18:52.346Z,2.39
2022-12-18T15:19:52.389Z,2.37
2022-12-18T15:20:52.375Z,2.38
2022-12-18T15:21:52.361Z,2.40
2022-12-18T15:22:52.391Z,2.44
2022-12-18T15:23:52.367Z,2.47